createdAt,value
2022-09-21T00:02:10.835Z,101261.81
2022-09-21T00:04:38.559Z,101266.41
2022-09-21T00:07:06.272Z,101265.56
2022-09-21T00:09:33.974Z,101257.38
2022-09-21T00:12:02.814Z,101263.84
2022-09-21T00:14:31.378Z,101264.69
2022-09-21T00:16:59.146Z,101272.00
2022-09-21T00:19:27.065Z,101268.44
2022-09-21T00:21:54.786Z,101271.16
2022-09-21T00:24:22.506Z,101263.13
2022-09-21T00:26:50.201Z,101273.19
2022-09-21T00:29:18.079Z,101276.78
2022-09-21T00:31:45.761Z,101280.53
2022-09-21T00:34:13.640Z,101276.97
2022-09-21T00:36:41.351Z,101278.84
2022-09-21T00:39:09.255Z,101283.41
2022-09-21T00:41:36.972Z,101283.25
2022-09-21T00:44:04.696Z,101278.84
2022-09-21T00:46:32.455Z,101275.41
2022-09-21T00:49:00.177Z,101272.84
2022-09-21T00:51:27.855Z,101278.28
2022-09-21T00:53:55.795Z,101278.28
2022-09-21T00:56:23.514Z,101281.22
2022-09-21T00:58:51.242Z,101281.22
2022-09-21T01:01:19.261Z,101283.06
2022-09-21T01:03:46.969Z,101278.63
2022-09-21T01:06:14.666Z,101282.22
2022-09-21T01:08:42.370Z,101287.66
2022-09-21T01:11:10.190Z,101286.97
2022-09-21T01:13:38.182Z,101290.72
2022-09-21T01:16:05.917Z,101295.13
2022-09-21T01:18:35.870Z,101287.16
2022-09-21T01:21:03.534Z,101285.41
2022-09-21T01:23:31.293Z,101293.44
2022-09-21T01:25:58.954Z,101285.41
2022-09-21T01:28:26.634Z,101289.19
2022-09-21T01:30:54.572Z,101289.19
2022-09-21T01:33:22.795Z,101296.50
2022-09-21T01:35:50.471Z,101300.06
2022-09-21T01:38:18.239Z,101300.25
2022-09-21T01:40:46.041Z,101307.41
2022-09-21T01:43:14.116Z,101300.25
2022-09-21T01:45:41.954Z,101293.09
2022-09-21T01:48:10.656Z,101294.13
2022-09-21T01:50:38.429Z,101300.41
2022-09-21T01:53:06.118Z,101303.13
2022-09-21T01:55:33.840Z,101297.00
2022-09-21T01:58:02.282Z,101298.88
2022-09-21T02:00:30.035Z,101299.38
2022-09-21T02:02:58.505Z,101295.09
2022-09-21T02:05:26.257Z,101289.84
2022-09-21T02:07:53.957Z,101298.88
2022-09-21T02:10:21.909Z,101298.03
2022-09-21T02:12:51.825Z,101304.66
2022-09-21T02:15:19.530Z,101306.34
2022-09-21T02:17:47.435Z,101301.75
2022-09-21T02:20:15.404Z,101305.34
2022-09-21T02:22:43.115Z,101310.09
2022-09-21T02:25:10.831Z,101308.38
2022-09-21T02:27:38.562Z,101309.25
2022-09-21T02:30:06.428Z,101307.38
2022-09-21T02:32:35.215Z,101309.25
2022-09-21T02:35:03.637Z,101302.94
2022-09-21T02:37:31.526Z,101312.97
2022-09-21T02:39:59.275Z,101310.25
2022-09-21T02:42:28.202Z,101307.38
2022-09-21T02:44:55.894Z,101311.09
2022-09-21T02:47:23.748Z,101314.00
2022-09-21T02:49:53.539Z,101315.88
2022-09-21T02:52:21.261Z,101307.88
2022-09-21T02:54:49.006Z,101309.56
2022-09-21T02:57:16.696Z,101315.00
2022-09-21T02:59:44.397Z,101322.34
2022-09-21T03:02:12.549Z,101324.22
2022-09-21T03:04:41.234Z,101327.09
2022-09-21T03:07:09.112Z,101331.66
2022-09-21T03:09:36.932Z,101327.25
2022-09-21T03:12:04.634Z,101328.94
2022-09-21T03:14:33.137Z,101333.53
2022-09-21T03:17:01.043Z,101333.53
2022-09-21T03:19:29.434Z,101331.84
2022-09-21T03:21:57.222Z,101330.97
2022-09-21T03:24:39.832Z,101335.56
2022-09-21T03:27:08.191Z,101332.31
2022-09-21T03:29:36.019Z,101333.16
2022-09-21T03:32:03.801Z,101336.75
2022-09-21T03:34:34.378Z,101334.19
2022-09-21T03:37:02.311Z,101335.03
2022-09-21T03:39:30.003Z,101335.03
2022-09-21T03:41:57.681Z,101334.84
2022-09-21T03:44:25.894Z,101344.91
2022-09-21T03:46:53.576Z,101340.50
2022-09-21T03:49:21.287Z,101338.63
2022-09-21T03:51:49.086Z,101347.81
2022-09-21T03:54:16.771Z,101345.25
2022-09-21T03:56:44.959Z,101343.38
2022-09-21T03:59:14.246Z,101339.94
2022-09-21T04:01:42.379Z,101350.84
2022-09-21T04:04:10.516Z,101349.84
2022-09-21T04:06:38.222Z,101355.28
2022-09-21T04:09:05.908Z,101356.28
2022-09-21T04:11:33.690Z,101353.56
2022-09-21T04:14:01.578Z,101356.28
2022-09-21T04:16:29.256Z,101356.28
2022-09-21T04:18:56.996Z,101357.31
2022-09-21T04:21:24.707Z,101354.44
2022-09-21T04:23:52.439Z,101359.91
2022-09-21T04:26:20.111Z,101355.28
2022-09-21T04:28:47.888Z,101360.75
2022-09-21T04:31:15.604Z,101355.28
2022-09-21T04:33:43.319Z,101359.19
2022-09-21T04:36:11.082Z,101366.19
2022-09-21T04:38:40.529Z,101359.91
2022-09-21T04:41:08.283Z,101363.13
2022-09-21T04:43:35.966Z,101362.09
2022-09-21T04:46:03.765Z,101366.19
2022-09-21T04:48:31.551Z,101367.19
2022-09-21T04:50:59.257Z,101371.78
2022-09-21T04:53:33.187Z,101371.97
2022-09-21T04:56:00.952Z,101365.81
2022-09-21T04:58:28.966Z,101372.13
2022-09-21T05:00:56.811Z,101372.28
2022-09-21T05:03:24.705Z,101379.44
2022-09-21T05:05:52.427Z,101370.41
2022-09-21T05:08:41.133Z,101378.75
2022-09-21T05:11:07.813Z,101384.38
2022-09-21T05:13:35.521Z,101380.63
2022-09-21T05:16:03.285Z,101384.38
2022-09-21T05:18:31.071Z,101383.50
2022-09-21T05:20:58.782Z,101388.28
2022-09-21T05:23:26.507Z,101393.53
2022-09-21T05:25:54.212Z,101388.09
2022-09-21T05:28:21.971Z,101392.69
2022-09-21T05:31:07.393Z,101392.69
2022-09-21T05:33:37.348Z,101397.28
2022-09-21T05:36:05.036Z,101396.25
2022-09-21T05:38:33.274Z,101403.59
2022-09-21T05:41:00.967Z,101398.28
2022-09-21T05:43:28.656Z,101411.06
2022-09-21T05:45:56.386Z,101406.63
2022-09-21T05:48:24.095Z,101411.91
2022-09-21T05:50:51.786Z,101413.78
2022-09-21T05:53:19.477Z,101412.78
2022-09-21T05:55:47.124Z,101410.22
2022-09-21T05:58:14.825Z,101420.25
2022-09-21T06:00:42.508Z,101417.34
2022-09-21T06:03:13.227Z,101414.63
2022-09-21T06:05:43.259Z,101416.19
2022-09-21T06:08:10.949Z,101415.50
2022-09-21T06:10:38.648Z,101419.94
2022-09-21T06:13:06.323Z,101415.50
2022-09-21T06:15:34.775Z,101430.81
2022-09-21T06:18:02.554Z,101422.66
2022-09-21T06:20:30.347Z,101427.41
2022-09-21T06:22:57.992Z,101419.41
2022-09-21T06:25:25.651Z,101428.25
2022-09-21T06:27:53.340Z,101427.41
2022-09-21T06:30:21.034Z,101422.81
2022-09-21T06:32:48.751Z,101425.69
2022-09-21T06:35:16.459Z,101428.09
2022-09-21T06:37:44.139Z,101429.13
2022-09-21T06:40:11.842Z,101427.41
2022-09-21T06:42:39.525Z,101424.84
2022-09-21T06:45:07.169Z,101429.13
2022-09-21T06:47:34.850Z,101429.13
2022-09-21T06:50:03.144Z,101429.28
2022-09-21T06:52:30.831Z,101432.84
2022-09-21T06:54:58.494Z,101435.25
2022-09-21T06:57:26.155Z,101437.13
2022-09-21T06:59:54.023Z,101442.75
2022-09-21T07:02:21.965Z,101440.16
2022-09-21T07:04:49.720Z,101436.59
2022-09-21T07:07:17.405Z,101448.34
2022-09-21T07:12:34.676Z,101445.78
2022-09-21T07:15:02.413Z,101451.06
2022-09-21T07:17:30.140Z,101446.31
2022-09-21T07:19:57.888Z,101453.47
2022-09-21T07:22:25.568Z,101450.59
2022-09-21T07:24:53.278Z,101451.78
2022-09-21T07:27:21.019Z,101449.91
2022-09-21T07:29:48.686Z,101460.66
2022-09-21T07:32:16.396Z,101463.53
2022-09-21T07:34:44.112Z,101461.81
2022-09-21T07:37:11.799Z,101457.94
2022-09-21T07:39:39.565Z,101474.09
2022-09-21T07:42:07.250Z,101467.09
2022-09-21T07:44:35.274Z,101460.66
2022-09-21T07:47:03.482Z,101461.50
2022-09-21T07:49:31.244Z,101467.78
2022-09-21T07:52:03.548Z,101460.78
2022-09-21T07:54:33.762Z,101460.66
2022-09-21T07:57:18.839Z,101464.03
2022-09-21T07:59:46.488Z,101467.94
2022-09-21T08:02:14.316Z,101469.66
2022-09-21T08:04:42.019Z,101470.53
2022-09-21T08:07:09.711Z,101465.22
2022-09-21T08:09:37.391Z,101471.53
2022-09-21T08:12:05.197Z,101467.94
2022-09-21T08:14:33.624Z,101476.13
2022-09-21T08:17:01.332Z,101468.13
2022-09-21T08:19:29.000Z,101466.25
2022-09-21T08:21:58.059Z,101476.13
2022-09-21T08:24:26.841Z,101476.13
2022-09-21T08:26:55.900Z,101479.53
2022-09-21T08:29:23.781Z,101481.28
2022-09-21T08:31:52.373Z,101488.25
2022-09-21T08:34:20.285Z,101483.81
2022-09-21T08:36:51.736Z,101482.66
2022-09-21T08:39:22.250Z,101478.91
2022-09-21T08:41:50.023Z,101483.50
2022-09-21T08:44:17.780Z,101486.09
2022-09-21T08:46:45.547Z,101487.06
2022-09-21T08:49:14.420Z,101491.84
2022-09-21T08:51:42.128Z,101489.78
2022-09-21T08:54:10.001Z,101497.97
2022-09-21T08:57:01.007Z,101484.34
2022-09-21T08:59:25.319Z,101494.56
2022-09-21T09:01:53.044Z,101491.66
2022-09-21T09:04:20.792Z,101496.13
2022-09-21T09:06:48.454Z,101494.97
2022-09-21T09:09:16.161Z,101495.81
2022-09-21T09:11:43.831Z,101490.19
2022-09-21T09:14:11.516Z,101494.63
2022-09-21T09:16:39.265Z,101492.63
2022-09-21T09:19:07.057Z,101493.47
2022-09-21T09:21:35.321Z,101480.84
2022-09-21T09:24:02.990Z,101480.69
2022-09-21T09:26:30.651Z,101479.69
2022-09-21T09:28:58.319Z,101477.97
2022-09-21T09:31:26.082Z,101482.41
2022-09-21T09:33:54.063Z,101479.69
2022-09-21T09:36:46.603Z,101470.63
2022-09-21T09:39:12.804Z,101473.69
2022-09-21T09:41:40.538Z,101477.44
2022-09-21T09:44:08.231Z,101473.84
2022-09-21T09:46:35.971Z,101473.16
2022-09-21T09:49:03.696Z,101469.41
2022-09-21T09:51:35.174Z,101475.56
2022-09-21T09:54:06.921Z,101465.84
2022-09-21T09:56:37.327Z,101467.38
2022-09-21T09:59:08.252Z,101470.13
2022-09-21T10:01:36.046Z,101467.38
2022-09-21T10:04:03.877Z,101472.50
2022-09-21T10:06:31.646Z,101468.78
2022-09-21T10:08:59.308Z,101461.59
2022-09-21T10:11:27.009Z,101469.50
2022-09-21T10:13:54.685Z,101471.22
2022-09-21T10:16:22.551Z,101465.59
2022-09-21T10:18:50.431Z,101467.47
2022-09-21T10:21:18.185Z,101469.34
2022-09-21T10:23:45.904Z,101467.47
2022-09-21T10:26:13.629Z,101465.44
2022-09-21T10:28:41.281Z,101470.72
2022-09-21T10:31:09.086Z,101456.25
2022-09-21T10:33:36.819Z,101468.19
2022-09-21T10:36:04.554Z,101462.72
2022-09-21T10:38:32.433Z,101462.72
2022-09-21T10:41:00.095Z,101463.44
2022-09-21T10:43:27.754Z,101465.13
2022-09-21T10:45:55.475Z,101460.69
2022-09-21T10:48:23.258Z,101464.09
2022-09-21T10:50:50.935Z,101457.97
2022-09-21T10:53:18.685Z,101461.38
2022-09-21T10:55:58.492Z,101455.06
2022-09-21T10:58:34.102Z,101460.53
2022-09-21T11:01:01.850Z,101446.03
2022-09-21T11:03:29.580Z,101442.28
2022-09-21T11:05:57.320Z,101439.03
2022-09-21T11:08:25.000Z,101441.91
2022-09-21T11:10:52.692Z,101440.91
2022-09-21T11:13:20.356Z,101445.34
2022-09-21T11:15:48.179Z,101439.91
2022-09-21T11:18:16.021Z,101441.78
2022-09-21T11:20:43.723Z,101452.66
2022-09-21T11:23:12.015Z,101441.78
2022-09-21T11:25:39.718Z,101442.78
2022-09-21T11:28:07.685Z,101441.91
2022-09-21T11:30:35.415Z,101437.50
2022-09-21T11:33:03.308Z,101444.66
2022-09-21T11:35:31.013Z,101442.63
2022-09-21T11:37:58.677Z,101438.91
2022-09-21T11:40:26.427Z,101438.91
2022-09-21T11:42:54.165Z,101440.91
2022-09-21T11:45:21.879Z,101438.34
2022-09-21T11:47:49.541Z,101440.22
2022-09-21T11:50:33.653Z,101438.53
2022-09-21T11:53:01.460Z,101428.63
2022-09-21T11:55:29.199Z,101425.91
2022-09-21T11:57:57.147Z,101424.00
2022-09-21T12:00:26.672Z,101421.16
2022-09-21T12:02:54.393Z,101422.84
2022-09-21T12:05:22.141Z,101416.53
2022-09-21T12:07:49.861Z,101415.84
2022-09-21T12:10:17.538Z,101406.81
2022-09-21T12:12:45.265Z,101413.13
2022-09-21T12:15:12.984Z,101401.38
2022-09-21T12:17:40.773Z,101403.09
2022-09-21T12:20:08.511Z,101397.78
2022-09-21T12:22:36.234Z,101404.94
2022-09-21T12:25:04.063Z,101394.75
2022-09-21T12:27:31.770Z,101404.47
2022-09-21T12:29:59.468Z,101390.69
2022-09-21T12:32:27.176Z,101395.09
2022-09-21T12:34:55.057Z,101396.97
2022-09-21T12:37:23.309Z,101398.69
2022-09-21T12:39:51.124Z,101394.97
2022-09-21T12:42:19.117Z,101390.50
2022-09-21T12:44:53.055Z,101386.09
2022-09-21T12:47:20.840Z,101386.78
2022-09-21T12:49:48.613Z,101383.88
2022-09-21T12:52:16.336Z,101379.31
2022-09-21T12:54:45.343Z,101367.69
2022-09-21T12:57:38.255Z,101376.03
2022-09-21T13:00:01.869Z,101383.34
2022-09-21T13:02:30.408Z,101381.66
2022-09-21T13:04:58.256Z,101383.69
2022-09-21T13:07:25.931Z,101376.50
2022-09-21T13:09:53.650Z,101379.09
2022-09-21T13:12:21.363Z,101368.34
2022-09-21T13:14:49.480Z,101371.06
2022-09-21T13:17:17.179Z,101374.13
2022-09-21T13:19:44.897Z,101370.38
2022-09-21T13:22:13.920Z,101373.13
2022-09-21T13:24:42.309Z,101376.69
2022-09-21T13:27:10.030Z,101368.66
2022-09-21T13:29:38.148Z,101367.81
2022-09-21T13:32:05.938Z,101363.22
2022-09-21T13:34:33.710Z,101367.66
2022-09-21T13:37:02.071Z,101366.97
2022-09-21T13:39:29.833Z,101364.94
2022-09-21T13:42:04.637Z,101366.97
2022-09-21T13:44:32.395Z,101364.34
2022-09-21T13:47:01.639Z,101365.25
2022-09-21T13:49:31.035Z,101353.47
2022-09-21T13:52:00.253Z,101359.78
2022-09-21T13:54:27.937Z,101353.47
2022-09-21T13:56:55.748Z,101354.34
2022-09-21T13:59:23.592Z,101348.00
2022-09-21T14:01:51.751Z,101343.66
2022-09-21T14:04:19.488Z,101336.78
2022-09-21T14:06:47.281Z,101335.50
2022-09-21T14:09:14.981Z,101339.78
2022-09-21T14:11:45.202Z,101343.22
2022-09-21T14:14:13.274Z,101331.06
2022-09-21T14:16:44.638Z,101336.47
2022-09-21T14:19:12.376Z,101339.38
2022-09-21T14:21:40.153Z,101335.38
2022-09-21T14:24:08.066Z,101332.25
2022-09-21T14:26:35.985Z,101332.78
2022-09-21T14:29:03.717Z,101326.59
2022-09-21T14:31:31.518Z,101323.56
2022-09-21T14:33:59.615Z,101316.06
2022-09-21T14:36:31.104Z,101314.69
2022-09-21T14:39:00.637Z,101316.03
2022-09-21T14:41:31.272Z,101311.97
2022-09-21T14:43:59.040Z,101315.91
2022-09-21T14:46:28.856Z,101321.25
2022-09-21T14:48:56.671Z,101320.91
2022-09-21T14:51:24.534Z,101315.56
2022-09-21T14:53:52.276Z,101312.16
2022-09-21T14:56:23.043Z,101312.72
2022-09-21T14:58:52.195Z,101311.94
2022-09-21T15:01:19.993Z,101309.81
2022-09-21T15:03:49.043Z,101305.56
2022-09-21T15:06:30.955Z,101306.19
2022-09-21T15:09:16.388Z,101307.50
2022-09-21T15:11:44.132Z,101299.66
2022-09-21T15:14:12.318Z,101300.25
2022-09-21T15:16:40.352Z,101295.69
2022-09-21T15:19:08.078Z,101292.28
2022-09-21T15:21:38.151Z,101286.38
2022-09-21T15:24:06.022Z,101288.69
2022-09-21T15:26:34.262Z,101290.13
2022-09-21T15:29:10.422Z,101280.19
2022-09-21T15:31:38.549Z,101281.38
2022-09-21T15:34:06.362Z,101287.69
2022-09-21T15:36:34.267Z,101287.50
2022-09-21T15:39:01.969Z,101290.69
2022-09-21T15:41:29.688Z,101286.31
2022-09-21T15:43:59.629Z,101284.66
2022-09-21T15:46:27.447Z,101281.44
2022-09-21T15:48:57.508Z,101288.25
2022-09-21T15:51:28.809Z,101291.78
2022-09-21T15:53:57.564Z,101286.25
2022-09-21T15:56:25.711Z,101292.38
2022-09-21T15:58:55.921Z,101291.72
2022-09-21T16:01:23.830Z,101290.22
2022-09-21T16:03:56.463Z,101283.56
2022-09-21T16:06:24.781Z,101280.56
2022-09-21T16:08:52.527Z,101285.75
2022-09-21T16:11:23.109Z,101293.72
2022-09-21T16:14:08.586Z,101295.84
2022-09-21T16:16:36.363Z,101295.69
2022-09-21T16:19:04.750Z,101299.63
2022-09-21T16:21:33.990Z,101302.22
2022-09-21T16:24:01.884Z,101297.31
2022-09-21T16:26:29.582Z,101300.47
2022-09-21T16:28:57.697Z,101302.31
2022-09-21T16:31:26.167Z,101306.44
2022-09-21T16:33:54.357Z,101304.78
2022-09-21T16:36:22.368Z,101308.63
2022-09-21T16:38:50.621Z,101306.97
2022-09-21T16:41:19.105Z,101304.03
2022-09-21T16:43:46.957Z,101305.28
2022-09-21T16:46:14.739Z,101298.88
2022-09-21T16:48:42.624Z,101302.13
2022-09-21T16:51:10.298Z,101299.59
2022-09-21T16:53:37.952Z,101304.06
2022-09-21T16:56:05.877Z,101304.28
2022-09-21T16:58:33.600Z,101301.38
2022-09-21T17:01:01.479Z,101305.69
2022-09-21T17:03:31.612Z,101307.94
2022-09-21T17:05:59.295Z,101305.19
2022-09-21T17:08:27.768Z,101307.41
2022-09-21T17:10:55.972Z,101313.38
2022-09-21T17:13:23.706Z,101316.13
2022-09-21T17:15:52.126Z,101321.09
2022-09-21T17:18:19.881Z,101317.69
2022-09-21T17:20:48.028Z,101315.28
2022-09-21T17:23:15.773Z,101319.56
2022-09-21T17:25:44.807Z,101319.03
2022-09-21T17:28:12.628Z,101316.81
2022-09-21T17:30:42.552Z,101318.00
2022-09-21T17:33:10.832Z,101313.78
2022-09-21T17:35:38.994Z,101317.72
2022-09-21T17:38:10.028Z,101318.03
2022-09-21T17:40:40.512Z,101314.78
2022-09-21T17:43:11.987Z,101324.88
2022-09-21T17:45:39.982Z,101326.06
2022-09-21T17:48:07.707Z,101321.91
2022-09-21T17:50:35.479Z,101320.38
2022-09-21T17:53:21.009Z,101321.66
2022-09-21T17:55:49.079Z,101327.88
2022-09-21T17:58:16.923Z,101329.97
2022-09-21T18:00:44.982Z,101326.94
2022-09-21T18:03:12.642Z,101332.44
2022-09-21T18:05:40.380Z,101337.31
2022-09-21T18:08:08.155Z,101337.06
2022-09-21T18:10:36.139Z,101337.69
2022-09-21T18:13:04.031Z,101340.72
2022-09-21T18:15:32.428Z,101342.59
2022-09-21T18:18:00.373Z,101342.50
2022-09-21T18:20:28.830Z,101336.03
2022-09-21T18:22:57.438Z,101343.03
2022-09-21T18:25:25.300Z,101343.56
2022-09-21T18:27:54.860Z,101344.06
2022-09-21T18:30:23.343Z,101339.94
2022-09-21T18:32:51.138Z,101335.31
2022-09-21T18:35:18.989Z,101348.47
2022-09-21T18:37:47.421Z,101343.09
2022-09-21T18:40:15.561Z,101341.09
2022-09-21T18:42:43.337Z,101344.53
2022-09-21T18:45:11.024Z,101358.91
2022-09-21T18:47:38.894Z,101352.63
2022-09-21T18:50:06.799Z,101348.78
2022-09-21T18:52:35.862Z,101354.84
2022-09-21T18:55:04.469Z,101350.47
2022-09-21T18:57:32.770Z,101355.41
2022-09-21T19:00:00.460Z,101350.72
2022-09-21T19:02:28.580Z,101349.78
2022-09-21T19:04:59.222Z,101355.34
2022-09-21T19:07:27.906Z,101353.63
2022-09-21T19:09:55.597Z,101348.78
2022-09-21T19:12:23.716Z,101351.09
2022-09-21T19:14:51.417Z,101350.69
2022-09-21T19:17:19.190Z,101351.31
2022-09-21T19:19:47.068Z,101341.63
2022-09-21T19:22:14.770Z,101351.97
2022-09-21T19:24:42.647Z,101345.88
2022-09-21T19:27:10.337Z,101345.81
2022-09-21T19:29:39.395Z,101346.19
2022-09-21T19:32:07.108Z,101347.34
2022-09-21T19:34:34.973Z,101350.47
2022-09-21T19:37:07.566Z,101348.41
2022-09-21T19:39:35.665Z,101351.06
2022-09-21T19:42:03.613Z,101348.91
2022-09-21T19:44:31.806Z,101348.28
2022-09-21T19:46:59.488Z,101350.91
2022-09-21T19:49:27.299Z,101347.53
2022-09-21T19:51:55.932Z,101345.88
2022-09-21T19:54:41.142Z,101344.22
2022-09-21T19:57:26.327Z,101355.84
2022-09-21T19:59:54.014Z,101356.75
2022-09-21T20:02:25.433Z,101356.41
2022-09-21T20:04:55.820Z,101353.72
2022-09-21T20:07:23.972Z,101352.34
2022-09-21T20:09:52.675Z,101349.28
2022-09-21T20:12:20.350Z,101346.44
2022-09-21T20:14:48.136Z,101346.47
2022-09-21T20:17:15.940Z,101350.41
2022-09-21T20:19:44.643Z,101345.63
2022-09-21T20:22:12.390Z,101343.44
2022-09-21T20:24:40.115Z,101345.81
2022-09-21T20:27:07.805Z,101343.63
2022-09-21T20:29:35.815Z,101341.22
2022-09-21T20:32:03.552Z,101344.47
2022-09-21T20:34:31.498Z,101340.34
2022-09-21T20:36:59.189Z,101343.25
2022-09-21T20:39:26.997Z,101342.75
2022-09-21T20:41:54.740Z,101348.56
2022-09-21T20:44:22.536Z,101347.22
2022-09-21T20:46:50.352Z,101344.81
2022-09-21T20:49:18.055Z,101344.13
2022-09-21T20:51:46.028Z,101345.50
2022-09-21T20:54:14.036Z,101340.38
2022-09-21T20:56:41.759Z,101339.53
2022-09-21T20:59:09.711Z,101339.84
2022-09-21T21:01:37.504Z,101334.75
2022-09-21T21:04:05.301Z,101341.59
2022-09-21T21:06:34.132Z,101337.31
2022-09-21T21:09:02.100Z,101341.06
2022-09-21T21:11:30.018Z,101344.13
2022-09-21T21:13:57.693Z,101344.47
2022-09-21T21:16:26.717Z,101346.53
2022-09-21T21:18:54.426Z,101347.72
2022-09-21T21:21:25.372Z,101347.03
2022-09-21T21:24:09.955Z,101342.75
2022-09-21T21:27:00.927Z,101346.69
2022-09-21T21:29:25.376Z,101343.09
2022-09-21T21:31:53.126Z,101339.00
2022-09-21T21:34:20.846Z,101342.75
2022-09-21T21:36:48.791Z,101342.09
2022-09-21T21:39:16.545Z,101337.63
2022-09-21T21:41:44.398Z,101341.41
2022-09-21T21:44:12.383Z,101339.84
2022-09-21T21:46:40.066Z,101345.44
2022-09-21T21:49:08.021Z,101340.81
2022-09-21T21:51:36.116Z,101342.69
2022-09-21T21:54:03.912Z,101347.47
2022-09-21T21:56:31.606Z,101345.78
2022-09-21T21:58:59.343Z,101350.53
2022-09-21T22:01:27.311Z,101353.25
2022-09-21T22:03:55.127Z,101352.91
2022-09-21T22:06:22.868Z,101349.50
2022-09-21T22:08:50.772Z,101345.06
2022-09-21T22:11:18.657Z,101350.53
2022-09-21T22:13:46.655Z,101346.25
2022-09-21T22:16:14.535Z,101342.84
2022-09-21T22:18:42.330Z,101343.72
2022-09-21T22:21:10.199Z,101336.53
2022-09-21T22:23:37.899Z,101334.84
2022-09-21T22:26:05.760Z,101335.31
2022-09-21T22:28:34.584Z,101340.94
2022-09-21T22:31:02.469Z,101337.38
2022-09-21T22:33:33.159Z,101338.41
2022-09-21T22:36:01.864Z,101340.28
2022-09-21T22:38:31.643Z,101340.44
2022-09-21T22:40:59.359Z,101341.28
2022-09-21T22:43:27.091Z,101339.72
2022-09-21T22:45:54.824Z,101339.91
2022-09-21T22:48:22.613Z,101339.91
2022-09-21T22:50:50.452Z,101333.59
2022-09-21T22:53:18.147Z,101338.19
2022-09-21T22:55:45.969Z,101333.91
2022-09-21T22:58:13.703Z,101335.81
2022-09-21T23:00:42.185Z,101336.84
2022-09-21T23:03:12.027Z,101334.09
2022-09-21T23:05:39.746Z,101331.38
2022-09-21T23:08:07.586Z,101327.97
2022-09-21T23:10:35.274Z,101327.97
2022-09-21T23:13:03.184Z,101325.38
2022-09-21T23:15:30.870Z,101324.53
2022-09-21T23:17:58.550Z,101314.66
2022-09-21T23:20:26.266Z,101320.13
2022-09-21T23:22:53.962Z,101315.66
2022-09-21T23:25:22.188Z,101318.56
2022-09-21T23:27:49.883Z,101319.56
2022-09-21T23:30:19.216Z,101322.28
2022-09-21T23:32:46.911Z,101321.63
2022-09-21T23:35:14.683Z,101319.75
2022-09-21T23:37:42.421Z,101315.47
2022-09-21T23:40:10.216Z,101321.78
2022-09-21T23:42:37.931Z,101321.94
2022-09-21T23:45:05.842Z,101318.38
2022-09-21T23:47:33.536Z,101325.53
2022-09-21T23:50:01.356Z,101325.69
2022-09-21T23:52:29.442Z,101316.66
2022-09-21T23:54:57.138Z,101325.69
2022-09-21T23:57:25.100Z,101326.72
2022-09-21T23:59:52.852Z,101323.13
